Time;durP1;ratioP1;P1;durP2;ratioP2;P2;SDS_P1;SDS_P2;PMS_P1;PMS_P2;Temp;Humidity;BMP_temperature;BMP_pressure;BME280_temperature;BME280_humidity;BME280_pressure;Samples;Min_cycle;Max_cycle;Signal;HPM_P1;HPM_P2
2022/10/23 00:01:00;;;;;;;5.00;2.53;;;15.50;99.90;;;;;;5018123;28;20170;-74
2022/10/23 00:03:26;;;;;;;6.20;3.38;;;15.40;99.90;;;;;;5017508;28;20189;-74
2022/10/23 00:05:52;;;;;;;3.88;2.50;;;15.40;99.90;;;;;;5017679;28;20289;-75
2022/10/23 00:08:17;;;;;;;4.25;2.47;;;15.40;99.90;;;;;;5017587;28;20364;-75
2022/10/23 00:10:48;;;;;;;4.25;2.55;;;15.40;99.90;;;;;;5034166;28;20189;-75
2022/10/23 00:13:16;;;;;;;4.60;2.55;;;15.30;99.90;;;;;;5017476;28;20206;-74
2022/10/23 00:15:42;;;;;;;4.85;2.67;;;15.20;99.90;;;;;;5016948;28;20167;-74
2022/10/23 00:18:07;;;;;;;4.03;2.63;;;15.20;99.90;;;;;;5033110;28;20177;-74
2022/10/23 00:20:33;;;;;;;6.85;2.70;;;15.20;99.90;;;;;;5020467;28;20327;-73
2022/10/23 00:22:59;;;;;;;4.95;2.38;;;15.20;99.90;;;;;;5017259;28;20189;-74
2022/10/23 00:25:24;;;;;;;4.57;2.45;;;15.20;99.90;;;;;;5013753;28;20176;-74
2022/10/23 00:27:50;;;;;;;4.68;2.25;;;15.10;99.90;;;;;;5031223;28;20193;-74
2022/10/23 00:30:18;;;;;;;3.67;2.28;;;15.10;99.90;;;;;;5013287;28;20274;-74
2022/10/23 00:32:46;;;;;;;5.10;2.30;;;15.10;99.90;;;;;;5016434;28;20202;-74
2022/10/23 00:35:11;;;;;;;3.35;2.30;;;15.10;99.90;;;;;;5016274;28;20185;-74
2022/10/23 00:37:39;;;;;;;3.38;1.92;;;15.00;99.90;;;;;;5013704;28;20175;-75
2022/10/23 00:40:05;;;;;;;6.18;2.58;;;15.00;99.90;;;;;;5014706;28;20206;-74
2022/10/23 00:42:31;;;;;;;3.90;2.40;;;15.00;99.90;;;;;;5018561;28;20269;-74
2022/10/23 00:45:20;;;;;;;5.35;3.17;;;15.00;99.90;;;;;;5016306;28;20262;-74
2022/10/23 00:47:47;;;;;;;4.82;3.47;;;15.00;99.90;;;;;;5003530;28;20214;-75
2022/10/23 00:50:18;;;;;;;4.72;3.35;;;15.00;99.90;;;;;;5017627;28;20175;-74
2022/10/23 00:52:47;;;;;;;5.05;3.10;;;14.90;99.90;;;;;;5018244;28;20198;-74
2022/10/23 00:55:20;;;;;;;4.15;2.78;;;15.00;99.90;;;;;;5032455;28;20189;-75
2022/10/23 00:57:48;;;;;;;5.15;2.92;;;14.90;99.90;;;;;;5015428;28;20205;-74
2022/10/23 01:00:48;;;;;;;5.03;2.67;;;14.90;99.90;;;;;;5014180;28;20179;-74
2022/10/23 01:03:17;;;;;;;3.45;2.40;;;14.90;99.90;;;;;;5012671;28;20195;-74
2022/10/23 01:06:22;;;;;;;3.20;2.10;;;14.80;99.90;;;;;;5012671;28;20214;-74
2022/10/23 01:08:58;;;;;;;3.53;2.20;;;14.90;99.90;;;;;;5014180;28;20183;-74
2022/10/23 01:11:35;;;;;;;5.30;2.33;;;14.80;99.90;;;;;;5034004;28;20202;-75
2022/10/23 01:14:15;;;;;;;5.13;2.30;;;14.80;99.90;;;;;;5009323;28;20210;-74
2022/10/23 01:16:51;;;;;;;3.58;1.88;;;14.80;99.90;;;;;;5003383;28;20250;-74
2022/10/23 01:19:41;;;;;;;3.55;2.30;;;14.80;99.90;;;;;;5016870;28;20255;-75
2022/10/23 01:22:37;;;;;;;3.30;1.95;;;14.80;99.90;;;;;;5020118;28;20405;-73
2022/10/23 01:25:20;;;;;;;4.82;2.50;;;14.80;99.90;;;;;;5015735;28;20190;-75
2022/10/23 01:27:54;;;;;;;4.18;2.45;;;14.80;99.90;;;;;;5032796;28;20208;-75
2022/10/23 01:30:20;;;;;;;4.47;2.30;;;14.70;99.90;;;;;;5000341;28;20197;-75
2022/10/23 01:33:05;;;;;;;3.15;2.25;;;14.80;99.90;;;;;;5016047;28;20209;-74
2022/10/23 01:35:37;;;;;;;7.82;2.65;;;14.70;99.90;;;;;;4998167;28;20167;-75
2022/10/23 01:38:14;;;;;;;4.70;2.05;;;14.70;99.90;;;;;;5033067;28;20205;-75
2022/10/23 01:40:40;;;;;;;4.07;2.60;;;14.70;99.90;;;;;;5023601;28;20284;-74
2022/10/23 01:43:26;;;;;;;7.20;2.50;;;14.70;99.90;;;;;;5016991;28;20268;-75
2022/10/23 01:46:02;;;;;;;4.50;2.70;;;14.70;99.90;;;;;;5032192;28;20190;-75
2022/10/23 01:48:30;;;;;;;3.60;2.38;;;14.60;99.90;;;;;;4998604;28;20194;-75
2022/10/23 01:50:59;;;;;;;9.68;2.83;;;14.60;99.90;;;;;;5015074;28;20265;-74
2022/10/23 01:53:29;;;;;;;4.65;2.40;;;14.60;99.90;;;;;;5032394;28;20209;-75
2022/10/23 01:56:00;;;;;;;4.43;2.40;;;14.60;99.90;;;;;;5011916;28;20181;-75
2022/10/23 01:58:27;;;;;;;5.25;2.50;;;14.60;99.90;;;;;;5014412;28;20229;-74
2022/10/23 02:01:00;;;;;;;5.38;2.45;;;14.60;99.90;;;;;;5014143;28;20233;-75
2022/10/23 02:03:30;;;;;;;4.15;2.10;;;14.60;99.90;;;;;;5016152;28;20181;-74
2022/10/23 02:05:56;;;;;;;8.95;2.55;;;14.60;99.90;;;;;;5015159;28;20189;-75
2022/10/23 02:08:24;;;;;;;4.80;2.22;;;14.60;99.90;;;;;;5011708;28;20187;-74
2022/10/23 02:11:10;;;;;;;3.55;1.95;;;14.60;99.90;;;;;;5010971;28;20282;-75
2022/10/23 02:13:43;;;;;;;3.17;1.88;;;14.50;99.90;;;;;;5011641;28;20205;-75
2022/10/23 02:16:33;;;;;;;4.10;1.90;;;14.60;99.90;;;;;;5015672;28;20206;-74
2022/10/23 02:19:28;;;;;;;2.28;1.80;;;14.50;99.90;;;;;;5017078;28;21722;-74
2022/10/23 02:22:11;;;;;;;3.72;2.30;;;14.60;99.90;;;;;;5008076;28;20179;-75
2022/10/23 02:24:49;;;;;;;3.05;2.00;;;14.60;99.90;;;;;;5012747;28;20198;-73
2022/10/23 02:27:20;;;;;;;2.03;1.70;;;14.60;99.90;;;;;;5005680;28;20199;-73
2022/10/23 02:29:52;;;;;;;3.08;1.92;;;14.60;99.90;;;;;;5012577;28;20180;-75
2022/10/23 02:32:23;;;;;;;3.28;1.73;;;14.50;99.90;;;;;;5015174;28;20209;-75
2022/10/23 02:34:49;;;;;;;3.33;2.10;;;14.50;99.90;;;;;;5013733;28;20210;-74
2022/10/23 02:37:15;;;;;;;5.07;2.15;;;14.60;99.90;;;;;;5030368;28;20270;-75
2022/10/23 02:39:41;;;;;;;2.85;1.52;;;14.50;99.90;;;;;;5014635;28;20258;-74
2022/10/23 02:42:25;;;;;;;4.32;1.75;;;14.60;99.90;;;;;;5008250;28;20297;-75
2022/10/23 02:44:59;;;;;;;2.55;1.75;;;14.60;99.90;;;;;;5010224;28;20210;-75
2022/10/23 02:47:51;;;;;;;3.40;1.55;;;14.60;99.90;;;;;;5012736;28;20205;-75
2022/10/23 02:50:44;;;;;;;3.33;1.70;;;14.60;99.90;;;;;;5021495;28;20194;-75
2022/10/23 02:53:44;;;;;;;3.25;1.38;;;14.60;99.90;;;;;;5030101;28;20262;-75
2022/10/23 02:56:35;;;;;;;3.00;1.70;;;14.60;99.90;;;;;;5025891;28;20183;-75
2022/10/23 02:59:46;;;;;;;2.03;1.50;;;14.60;99.90;;;;;;5014378;28;20179;-75
2022/10/23 03:02:47;;;;;;;3.28;2.13;;;14.60;99.90;;;;;;4990106;28;20175;-76
2022/10/23 03:05:23;;;;;;;2.65;1.77;;;14.60;99.90;;;;;;5028981;28;20181;-75
2022/10/23 03:07:49;;;;;;;5.00;2.63;;;14.60;99.90;;;;;;5015274;28;20189;-75
2022/10/23 03:10:19;;;;;;;6.22;2.42;;;14.60;99.90;;;;;;5009612;28;20199;-75
2022/10/23 03:12:46;;;;;;;3.28;1.70;;;14.60;99.90;;;;;;5007490;28;20176;-75
2022/10/23 03:15:15;;;;;;;2.80;1.70;;;14.60;99.90;;;;;;5014879;28;20179;-75
2022/10/23 03:17:40;;;;;;;3.47;1.73;;;14.60;99.90;;;;;;5013998;28;20282;-76
2022/10/23 03:20:09;;;;;;;3.40;1.75;;;14.60;99.90;;;;;;5014331;28;20202;-75
2022/10/23 03:22:35;;;;;;;3.80;1.70;;;14.60;99.90;;;;;;5034401;28;20447;-74
2022/10/23 03:25:04;;;;;;;3.55;1.60;;;14.60;99.90;;;;;;5035641;28;20182;-75
2022/10/23 03:27:30;;;;;;;4.15;1.60;;;14.60;99.90;;;;;;5023170;28;20194;-75
2022/10/23 03:29:55;;;;;;;3.53;1.50;;;14.70;99.90;;;;;;5018033;28;20171;-74
2022/10/23 03:32:21;;;;;;;2.50;1.30;;;14.70;99.90;;;;;;5017753;28;20258;-75
2022/10/23 03:34:47;;;;;;;3.80;1.38;;;14.70;99.90;;;;;;5018833;28;20191;-74
2022/10/23 03:37:14;;;;;;;1.83;1.40;;;14.70;99.90;;;;;;5017418;28;20225;-75
2022/10/23 03:39:42;;;;;;;2.35;1.40;;;14.70;99.90;;;;;;5018173;28;20241;-74
2022/10/23 03:42:08;;;;;;;3.42;1.63;;;14.70;99.90;;;;;;5034095;28;20190;-75
2022/10/23 03:44:36;;;;;;;3.72;1.90;;;14.70;99.90;;;;;;5017988;28;20203;-74
2022/10/23 03:47:01;;;;;;;3.75;1.52;;;14.70;99.90;;;;;;5017935;28;20182;-74
2022/10/23 03:49:30;;;;;;;4.13;1.60;;;14.70;99.90;;;;;;5008418;28;20176;-73
2022/10/23 03:51:55;;;;;;;2.58;1.60;;;14.70;99.90;;;;;;5011812;28;20178;-74
2022/10/23 03:54:23;;;;;;;3.78;1.50;;;14.70;99.90;;;;;;5018430;28;20206;-74
2022/10/23 03:56:49;;;;;;;5.45;1.80;;;14.70;99.90;;;;;;5017850;28;20225;-75
2022/10/23 03:59:15;;;;;;;2.85;1.90;;;14.60;99.90;;;;;;5020962;28;20182;-74
2022/10/23 04:01:41;;;;;;;4.28;2.20;;;14.60;99.90;;;;;;5015642;28;20199;-73
2022/10/23 04:04:07;;;;;;;3.92;2.78;;;14.70;99.90;;;;;;5016559;28;20175;-75
2022/10/23 04:06:32;;;;;;;6.00;2.97;;;14.60;99.90;;;;;;5016981;28;20175;-75
2022/10/23 04:09:01;;;;;;;4.45;2.80;;;14.60;99.90;;;;;;5018250;28;20202;-76
2022/10/23 04:11:26;;;;;;;6.85;2.60;;;14.60;99.90;;;;;;5017068;28;20221;-74
2022/10/23 04:13:52;;;;;;;12.00;2.40;;;14.60;99.90;;;;;;5010288;28;20226;-76
2022/10/23 04:16:18;;;;;;;5.07;2.65;;;14.60;99.90;;;;;;5007395;28;20202;-75
2022/10/23 04:18:44;;;;;;;2.92;2.10;;;14.60;99.90;;;;;;5013673;28;20274;-76
2022/10/23 04:21:12;;;;;;;3.20;1.92;;;14.60;99.90;;;;;;5028133;28;20179;-75
2022/10/23 04:23:40;;;;;;;4.55;2.40;;;14.60;99.90;;;;;;5015341;28;20207;-75
2022/10/23 04:26:05;;;;;;;3.83;2.33;;;14.60;99.90;;;;;;5030742;28;20270;-76
2022/10/23 04:28:31;;;;;;;3.80;2.20;;;14.60;99.90;;;;;;5018208;28;20552;-73
2022/10/23 04:30:57;;;;;;;3.85;2.30;;;14.60;99.90;;;;;;5017484;28;20251;-73
2022/10/23 04:33:23;;;;;;;3.45;1.90;;;14.60;99.90;;;;;;5015946;28;20244;-74
2022/10/23 04:35:51;;;;;;;3.58;2.10;;;14.60;99.90;;;;;;5033178;28;20182;-74
2022/10/23 04:38:17;;;;;;;3.38;2.20;;;14.60;99.90;;;;;;5033117;28;20328;-74
2022/10/23 04:40:42;;;;;;;3.33;2.10;;;14.60;99.90;;;;;;5024998;28;20205;-74
2022/10/23 04:43:08;;;;;;;4.22;2.72;;;14.60;99.90;;;;;;5033774;28;20293;-74
2022/10/23 04:45:36;;;;;;;4.88;3.60;;;14.60;99.90;;;;;;4999969;28;20179;-75
2022/10/23 04:48:01;;;;;;;6.72;3.55;;;14.60;99.90;;;;;;5015954;28;20178;-75
2022/10/23 04:50:27;;;;;;;4.60;3.33;;;14.60;99.90;;;;;;5016948;28;20284;-75
2022/10/23 04:52:57;;;;;;;6.00;3.42;;;14.50;99.90;;;;;;5033455;28;20205;-74
2022/10/23 04:55:24;;;;;;;5.10;2.85;;;14.60;99.90;;;;;;5012472;28;20176;-74
2022/10/23 04:57:50;;;;;;;4.07;2.85;;;14.50;99.90;;;;;;5020249;28;20257;-74
2022/10/23 05:00:16;;;;;;;3.35;2.42;;;14.50;99.90;;;;;;5015055;28;20209;-75
2022/10/23 05:02:45;;;;;;;4.80;2.60;;;14.50;99.90;;;;;;5016568;28;20174;-74
2022/10/23 05:05:11;;;;;;;3.60;2.10;;;14.50;99.90;;;;;;5004445;28;20184;-73
2022/10/23 05:07:37;;;;;;;5.57;2.42;;;14.50;99.90;;;;;;5032272;28;20195;-74
2022/10/23 05:10:05;;;;;;;2.88;2.38;;;14.50;99.90;;;;;;5016041;28;20187;-74
2022/10/23 05:12:31;;;;;;;2.80;2.00;;;14.50;99.90;;;;;;5017092;28;20250;-74
2022/10/23 05:15:00;;;;;;;4.82;2.05;;;14.50;99.90;;;;;;5015877;28;20301;-74
2022/10/23 05:17:33;;;;;;;4.15;2.70;;;14.50;99.90;;;;;;5017736;28;20167;-74
2022/10/23 05:20:02;;;;;;;3.58;2.08;;;14.50;99.90;;;;;;5024503;28;20170;-74
2022/10/23 05:22:34;;;;;;;2.90;1.90;;;14.50;99.90;;;;;;5016647;28;20198;-74
2022/10/23 05:25:01;;;;;;;3.90;1.90;;;14.40;99.90;;;;;;5009261;28;20265;-74
2022/10/23 05:27:29;;;;;;;2.42;1.90;;;14.40;99.90;;;;;;5015960;28;20175;-74
2022/10/23 05:29:54;;;;;;;5.10;1.90;;;14.40;99.90;;;;;;5016164;28;20236;-75
2022/10/23 05:32:22;;;;;;;2.25;1.92;;;14.40;99.90;;;;;;5013052;28;20207;-74
2022/10/23 05:34:48;;;;;;;2.70;1.88;;;14.40;99.90;;;;;;5015251;28;20187;-75
2022/10/23 05:37:15;;;;;;;2.83;1.90;;;14.40;99.90;;;;;;5031512;28;20186;-74
2022/10/23 05:39:41;;;;;;;4.57;1.70;;;14.30;99.90;;;;;;5016006;28;20181;-74
2022/10/23 05:42:11;;;;;;;1.98;1.55;;;14.30;99.90;;;;;;5017140;28;20159;-75
2022/10/23 05:44:39;;;;;;;2.80;1.50;;;14.30;99.90;;;;;;5015450;28;20179;-74
2022/10/23 05:47:06;;;;;;;3.85;2.03;;;14.40;99.90;;;;;;5020456;28;20210;-75
2022/10/23 05:49:32;;;;;;;2.55;1.90;;;14.30;99.90;;;;;;5015136;28;20178;-75
2022/10/23 05:52:00;;;;;;;2.47;1.88;;;14.30;99.90;;;;;;5044834;28;20231;-74
2022/10/23 05:54:26;;;;;;;3.53;1.88;;;14.30;99.90;;;;;;5015047;28;20201;-74
2022/10/23 05:56:51;;;;;;;4.13;2.20;;;14.30;99.90;;;;;;5018742;28;20198;-75
2022/10/23 05:59:17;;;;;;;3.95;1.85;;;14.20;99.90;;;;;;5029722;28;20190;-75
2022/10/23 06:01:43;;;;;;;4.90;1.60;;;14.20;99.90;;;;;;5014871;28;20253;-74
2022/10/23 06:04:08;;;;;;;5.68;1.75;;;14.20;99.90;;;;;;5017504;28;20199;-75
2022/10/23 06:06:35;;;;;;;3.38;2.05;;;14.20;99.90;;;;;;5015001;28;20265;-76
2022/10/23 06:09:04;;;;;;;4.07;1.88;;;14.10;99.90;;;;;;5016544;28;20546;-74
2022/10/23 06:11:29;;;;;;;2.28;1.83;;;14.20;99.90;;;;;;5015321;28;20226;-74
2022/10/23 06:13:55;;;;;;;3.13;1.70;;;14.20;99.90;;;;;;5030881;28;20229;-71
2022/10/23 06:16:25;;;;;;;2.65;1.83;;;14.10;99.90;;;;;;5013167;28;20247;-72
2022/10/23 06:18:54;;;;;;;4.47;2.20;;;14.10;99.90;;;;;;5007608;28;20230;-71
2022/10/23 06:21:20;;;;;;;4.93;2.15;;;14.10;99.90;;;;;;5031225;28;20441;-71
2022/10/23 06:23:46;;;;;;;2.88;2.08;;;14.10;99.90;;;;;;5014995;28;20174;-71
2022/10/23 06:26:18;;;;;;;2.80;1.98;;;14.20;99.90;;;;;;5014579;28;20265;-71
2022/10/23 06:28:43;;;;;;;2.92;1.90;;;14.10;99.90;;;;;;5011891;28;20290;-72
2022/10/23 06:31:12;;;;;;;3.53;1.77;;;14.20;99.90;;;;;;5012652;28;20259;-71
2022/10/23 06:33:46;;;;;;;4.15;2.20;;;14.20;99.90;;;;;;5014397;28;20213;-69
2022/10/23 06:36:12;;;;;;;3.22;2.20;;;14.20;99.90;;;;;;5013621;28;20202;-70
2022/10/23 06:38:39;;;;;;;5.65;1.88;;;14.20;99.90;;;;;;5015171;28;20244;-72
2022/10/23 06:41:09;;;;;;;3.65;2.20;;;14.30;99.90;;;;;;5014697;28;20236;-72
2022/10/23 06:43:34;;;;;;;2.80;1.83;;;14.30;99.90;;;;;;5028828;28;20353;-73
2022/10/23 06:46:04;;;;;;;2.65;1.80;;;14.30;99.90;;;;;;5021479;28;20266;-72
2022/10/23 06:48:30;;;;;;;4.50;1.98;;;14.30;99.90;;;;;;5004151;28;20177;-72
2022/10/23 06:50:56;;;;;;;2.67;1.98;;;14.40;99.90;;;;;;5014177;28;20206;-71
2022/10/23 06:53:25;;;;;;;3.58;1.95;;;14.40;99.90;;;;;;5016529;28;20221;-71
2022/10/23 06:55:51;;;;;;;4.45;2.20;;;14.50;99.90;;;;;;5016120;28;20229;-72
2022/10/23 06:58:19;;;;;;;2.97;1.95;;;14.50;99.90;;;;;;5018414;28;20198;-73
2022/10/23 07:00:47;;;;;;;3.25;1.88;;;14.50;99.90;;;;;;5018457;28;20163;-72
2022/10/23 07:03:12;;;;;;;4.22;2.03;;;14.60;99.90;;;;;;5019031;28;20179;-72
2022/10/23 07:05:43;;;;;;;3.17;1.80;;;14.60;99.90;;;;;;5034981;28;20178;-72
2022/10/23 07:08:09;;;;;;;3.30;1.90;;;14.70;99.90;;;;;;5035088;28;20278;-73
2022/10/23 07:10:35;;;;;;;3.22;2.00;;;14.70;99.90;;;;;;5031740;28;20179;-71
2022/10/23 07:13:02;;;;;;;2.85;1.73;;;14.70;99.90;;;;;;5021811;28;20194;-72
2022/10/23 07:15:28;;;;;;;3.72;2.25;;;14.80;99.90;;;;;;5016758;28;20178;-71
2022/10/23 07:17:56;;;;;;;2.78;2.10;;;14.80;99.90;;;;;;5017446;28;20178;-72
2022/10/23 07:20:25;;;;;;;3.55;2.05;;;14.90;99.90;;;;;;5017367;28;20261;-73
2022/10/23 07:22:57;;;;;;;3.72;2.25;;;14.90;99.90;;;;;;5034300;28;20181;-72
2022/10/23 07:25:24;;;;;;;4.25;1.85;;;14.90;99.90;;;;;;5017942;28;20233;-72
2022/10/23 07:27:50;;;;;;;4.25;1.90;;;15.00;99.90;;;;;;5033293;28;20193;-72
2022/10/23 07:30:18;;;;;;;2.38;1.83;;;15.00;99.90;;;;;;5017003;28;20333;-73
2022/10/23 07:32:46;;;;;;;3.58;2.08;;;15.00;99.90;;;;;;5018102;28;20213;-73
2022/10/23 07:35:12;;;;;;;5.32;2.08;;;15.10;99.90;;;;;;5017874;28;20171;-74
2022/10/23 07:37:38;;;;;;;2.80;1.52;;;15.10;99.90;;;;;;5018088;28;20167;-73
2022/10/23 07:40:05;;;;;;;2.85;1.70;;;15.10;99.90;;;;;;5014548;28;20273;-73
2022/10/23 07:42:34;;;;;;;2.58;1.90;;;15.20;99.90;;;;;;5017371;28;20179;-73
2022/10/23 07:45:03;;;;;;;2.35;1.92;;;15.20;99.90;;;;;;5033966;28;20179;-73
2022/10/23 07:47:31;;;;;;;3.38;1.60;;;15.20;99.90;;;;;;5034420;28;20274;-73
2022/10/23 07:50:01;;;;;;;2.20;1.70;;;15.30;99.90;;;;;;5017164;28;20175;-73
2022/10/23 07:52:27;;;;;;;2.72;1.60;;;15.30;99.90;;;;;;5034736;28;20171;-77
2022/10/23 07:54:55;;;;;;;2.72;1.63;;;15.40;99.90;;;;;;5017787;28;20201;-77
2022/10/23 07:57:21;;;;;;;3.33;2.00;;;15.50;99.90;;;;;;5017531;28;20195;-78
2022/10/23 07:59:46;;;;;;;2.55;1.50;;;15.50;99.90;;;;;;5013834;28;20181;-76
2022/10/23 08:02:15;;;;;;;2.90;1.65;;;15.60;99.90;;;;;;5017158;28;20261;-77
2022/10/23 08:04:41;;;;;;;4.68;1.60;;;15.60;99.90;;;;;;5017882;28;20282;-77
2022/10/23 08:07:07;;;;;;;2.28;1.38;;;15.70;99.90;;;;;;5016518;28;20314;-79
2022/10/23 08:09:36;;;;;;;2.05;1.35;;;15.70;99.90;;;;;;5016068;28;20185;-79
2022/10/23 08:12:04;;;;;;;2.80;1.77;;;15.80;99.90;;;;;;5033053;28;20234;-79
2022/10/23 08:14:30;;;;;;;2.58;1.75;;;15.90;99.90;;;;;;5017346;28;20281;-79
2022/10/23 08:16:56;;;;;;;2.55;1.42;;;16.00;99.90;;;;;;5013840;28;20262;-77
2022/10/23 08:19:23;;;;;;;2.30;1.52;;;16.10;99.90;;;;;;5016371;28;20240;-80
2022/10/23 08:21:53;;;;;;;2.33;1.50;;;16.10;99.90;;;;;;5033307;28;20236;-78
2022/10/23 08:24:19;;;;;;;2.45;1.52;;;16.30;99.90;;;;;;5031809;28;20202;-80
2022/10/23 08:26:46;;;;;;;3.78;1.55;;;16.30;99.90;;;;;;5013435;28;20205;-79
2022/10/23 08:29:14;;;;;;;2.67;1.55;;;16.40;99.90;;;;;;5026692;28;20179;-79
2022/10/23 08:31:42;;;;;;;2.90;1.40;;;16.50;99.90;;;;;;5016535;28;20233;-80
2022/10/23 08:34:11;;;;;;;2.70;1.50;;;16.60;99.90;;;;;;5015756;28;20198;-80
2022/10/23 08:36:41;;;;;;;3.05;1.60;;;16.70;99.90;;;;;;5013375;28;20262;-79
2022/10/23 08:39:06;;;;;;;4.43;1.48;;;16.80;99.90;;;;;;5016318;28;20203;-80
2022/10/23 08:41:36;;;;;;;4.13;2.15;;;16.90;99.90;;;;;;5031912;28;20214;-80
2022/10/23 08:44:22;;;;;;;3.35;1.77;;;17.00;99.90;;;;;;5022884;28;20178;-79
2022/10/23 08:47:03;;;;;;;2.08;1.42;;;17.20;99.90;;;;;;5033714;28;20331;-79
2022/10/23 08:49:50;;;;;;;3.03;1.90;;;17.30;99.90;;;;;;5032414;28;20486;-78
2022/10/23 08:52:38;;;;;;;2.50;1.50;;;17.40;99.90;;;;;;5007334;28;20186;-80
2022/10/23 08:55:22;;;;;;;2.58;1.40;;;17.50;99.90;;;;;;5016654;28;20195;-79
2022/10/23 08:57:57;;;;;;;2.08;1.27;;;17.70;99.90;;;;;;5014528;28;20282;-80
2022/10/23 09:00:23;;;;;;;3.35;1.42;;;17.90;99.90;;;;;;5023543;28;20174;-78
2022/10/23 09:02:53;;;;;;;2.05;1.30;;;18.00;99.90;;;;;;5015061;28;20181;-77
2022/10/23 09:05:38;;;;;;;1.92;1.40;;;18.30;99.90;;;;;;5016631;28;20209;-79
2022/10/23 09:08:25;;;;;;;2.53;1.40;;;18.80;99.90;;;;;;5016380;28;20170;-79
2022/10/23 09:10:50;;;;;;;2.83;1.50;;;19.30;99.90;;;;;;5016048;28;20182;-79
2022/10/23 09:13:48;;;;;;;3.17;1.40;;;19.90;99.90;;;;;;5015978;28;20229;-79
2022/10/23 09:16:40;;;;;;;1.83;1.30;;;20.60;99.90;;;;;;5018630;28;20241;-77
2022/10/23 09:19:17;;;;;;;2.22;1.25;;;21.10;99.90;;;;;;5024795;28;20189;-77
2022/10/23 09:21:49;;;;;;;3.25;1.38;;;21.50;99.90;;;;;;5016143;28;20202;-78
2022/10/23 09:24:19;;;;;;;1.80;1.40;;;21.70;99.90;;;;;;5012692;28;20179;-77
2022/10/23 09:26:51;;;;;;;2.08;1.33;;;21.80;99.90;;;;;;5032266;28;20272;-80
2022/10/23 09:29:28;;;;;;;2.47;1.20;;;21.90;99.90;;;;;;5015725;28;20182;-79
2022/10/23 09:31:59;;;;;;;1.42;1.00;;;21.80;99.90;;;;;;5033876;28;20190;-79
2022/10/23 09:34:27;;;;;;;1.35;1.10;;;21.50;99.90;;;;;;5012029;28;20249;-78
2022/10/23 09:37:05;;;;;;;2.00;1.10;;;21.30;99.90;;;;;;5015306;28;20183;-79
2022/10/23 09:39:35;;;;;;;4.95;1.35;;;21.10;99.90;;;;;;5032587;28;20181;-80
2022/10/23 09:42:19;;;;;;;3.58;1.50;;;20.90;99.90;;;;;;5015404;28;20194;-79
2022/10/23 09:44:51;;;;;;;2.25;1.40;;;20.70;99.90;;;;;;5024879;28;20191;-78
2022/10/23 09:47:23;;;;;;;2.03;1.30;;;20.50;99.90;;;;;;5015520;28;20241;-75
2022/10/23 09:49:54;;;;;;;1.63;1.10;;;20.30;99.90;;;;;;5020332;28;20212;-76
2022/10/23 09:52:23;;;;;;;2.42;1.30;;;20.10;99.90;;;;;;5014013;28;20183;-76
2022/10/23 09:55:03;;;;;;;2.30;1.10;;;19.90;99.90;;;;;;5015891;28;20214;-78
2022/10/23 09:57:41;;;;;;;1.63;1.00;;;19.80;99.90;;;;;;5031664;28;20285;-76
2022/10/23 10:00:13;;;;;;;1.92;1.20;;;19.80;99.90;;;;;;5031731;28;20182;-75
2022/10/23 10:02:41;;;;;;;3.97;1.23;;;19.80;99.90;;;;;;5040719;28;20194;-79
2022/10/23 10:05:29;;;;;;;6.75;1.50;;;19.70;99.90;;;;;;5016641;28;20178;-77
2022/10/23 10:08:28;;;;;;;1.77;1.05;;;19.70;99.90;;;;;;5031936;28;20185;-78
2022/10/23 10:11:11;;;;;;;2.10;1.30;;;19.70;99.90;;;;;;5015767;28;20243;-78
2022/10/23 10:13:55;;;;;;;1.95;1.35;;;19.70;99.90;;;;;;5015173;28;20281;-81
2022/10/23 10:16:29;;;;;;;4.32;3.10;;;19.70;99.90;;;;;;5015198;28;20273;-77
2022/10/23 10:19:19;;;;;;;2.13;1.60;;;19.60;99.90;;;;;;5010824;28;20205;-77
2022/10/23 10:21:58;;;;;;;2.33;1.60;;;19.50;99.90;;;;;;5007079;28;20185;-77
2022/10/23 10:24:42;;;;;;;3.15;1.40;;;19.50;99.90;;;;;;5014871;28;20209;-78
2022/10/23 10:27:10;;;;;;;2.13;1.50;;;19.40;99.90;;;;;;5024070;28;20204;-76
2022/10/23 10:29:59;;;;;;;2.70;1.50;;;19.30;99.90;;;;;;5013364;28;20179;-78
2022/10/23 10:32:37;;;;;;;2.42;1.38;;;19.20;99.90;;;;;;5031100;28;20179;-78
2022/10/23 10:35:15;;;;;;;1.73;1.30;;;19.20;99.90;;;;;;5015362;28;20210;-77
2022/10/23 10:37:58;;;;;;;1.77;1.25;;;19.10;99.90;;;;;;5014722;28;20358;-77
2022/10/23 10:40:27;;;;;;;3.60;1.30;;;19.00;99.90;;;;;;5031337;28;20179;-77
2022/10/23 10:42:57;;;;;;;2.33;1.50;;;19.00;99.90;;;;;;5031118;28;20258;-76
2022/10/23 10:45:39;;;;;;;2.08;1.50;;;18.90;99.90;;;;;;5019539;28;20190;-77
2022/10/23 10:48:30;;;;;;;1.77;1.27;;;18.90;99.90;;;;;;5034509;28;20166;-75
2022/10/23 10:51:06;;;;;;;2.13;1.52;;;18.90;99.90;;;;;;5012686;28;20163;-77
2022/10/23 10:53:57;;;;;;;2.60;1.50;;;18.90;99.90;;;;;;5033702;28;20193;-77
2022/10/23 10:56:30;;;;;;;2.45;1.20;;;18.80;99.90;;;;;;5005785;28;20166;-78
2022/10/23 10:59:05;;;;;;;2.65;1.60;;;18.90;99.90;;;;;;5029309;28;20199;-79
2022/10/23 11:01:36;;;;;;;1.33;1.17;;;18.80;99.90;;;;;;5010843;28;20181;-79
2022/10/23 11:04:32;;;;;;;1.90;1.48;;;18.70;99.90;;;;;;5014029;28;20174;-77
2022/10/23 11:07:05;;;;;;;2.08;1.27;;;18.70;99.90;;;;;;5030018;28;20179;-76
2022/10/23 11:09:33;;;;;;;3.67;1.70;;;18.60;99.90;;;;;;5013410;28;20272;-77
2022/10/23 11:11:59;;;;;;;2.67;1.70;;;18.60;99.90;;;;;;5014264;28;20437;-75
2022/10/23 11:14:27;;;;;;;2.25;1.40;;;18.60;99.90;;;;;;5013980;28;20198;-77
2022/10/23 11:17:05;;;;;;;3.22;2.03;;;18.60;99.90;;;;;;4994290;28;20269;-78
2022/10/23 11:19:48;;;;;;;1.83;1.42;;;18.60;99.90;;;;;;5012210;28;20198;-76
2022/10/23 11:22:35;;;;;;;2.50;1.60;;;18.60;99.90;;;;;;5017711;28;20174;-80
2022/10/23 11:25:34;;;;;;;3.42;1.50;;;18.60;99.90;;;;;;5026816;28;20270;-79
2022/10/23 11:28:12;;;;;;;2.35;1.67;;;18.50;99.90;;;;;;5013037;28;20185;-78
2022/10/23 11:30:59;;;;;;;3.50;1.40;;;18.60;99.90;;;;;;5013556;28;20233;-75
2022/10/23 11:33:55;;;;;;;3.20;1.70;;;18.60;99.90;;;;;;5028398;28;20298;-78
2022/10/23 11:36:47;;;;;;;3.28;1.60;;;18.60;99.90;;;;;;5024800;28;20183;-78
2022/10/23 11:39:35;;;;;;;3.03;1.85;;;18.70;99.90;;;;;;5014205;28;20266;-76
2022/10/23 11:42:04;;;;;;;2.95;1.75;;;18.80;99.90;;;;;;5007535;28;20167;-79
2022/10/23 11:44:39;;;;;;;2.70;1.80;;;18.90;99.90;;;;;;5008577;28;20197;-79
2022/10/23 11:47:26;;;;;;;3.35;1.75;;;19.10;99.90;;;;;;5033704;28;20202;-81
2022/10/23 11:50:06;;;;;;;4.18;1.95;;;19.20;99.90;;;;;;5012988;28;20186;-79
2022/10/23 11:53:38;;;;;;;2.78;1.50;;;19.30;99.90;;;;;;5035360;28;20178;-77
2022/10/23 11:56:11;;;;;;;1.85;1.50;;;19.50;99.90;;;;;;5002801;28;20174;-80
2022/10/23 11:58:45;;;;;;;2.28;1.58;;;19.50;99.90;;;;;;5028369;28;20182;-80
2022/10/23 12:01:33;;;;;;;5.32;1.52;;;19.60;99.90;;;;;;5017441;28;20222;-81
2022/10/23 12:04:19;;;;;;;2.78;1.90;;;19.70;99.90;;;;;;5011072;28;20260;-79
2022/10/23 12:06:51;;;;;;;4.75;1.95;;;19.70;99.90;;;;;;5018438;28;20199;-81
2022/10/23 12:09:41;;;;;;;2.53;1.50;;;19.80;99.90;;;;;;5017138;28;20193;-80
2022/10/23 12:12:07;;;;;;;1.90;1.60;;;19.90;99.90;;;;;;5016356;28;20448;-81
2022/10/23 12:14:47;;;;;;;2.13;1.58;;;20.00;99.90;;;;;;5016317;28;20217;-80
2022/10/23 12:17:21;;;;;;;2.72;1.30;;;20.10;99.90;;;;;;5017311;28;20201;-81
2022/10/23 12:20:10;;;;;;;2.63;1.50;;;20.10;99.90;;;;;;5033183;28;20178;-80
2022/10/23 12:22:49;;;;;;;3.38;1.77;;;20.20;99.90;;;;;;5019612;28;20194;-77
2022/10/23 12:25:22;;;;;;;3.05;1.77;;;20.20;99.90;;;;;;5024506;28;20197;-80
2022/10/23 12:28:06;;;;;;;3.78;1.60;;;20.30;99.90;;;;;;5017198;28;20202;-82
2022/10/23 12:30:44;;;;;;;4.20;1.60;;;20.30;99.90;;;;;;5016843;28;20198;-80
2022/10/23 12:33:28;;;;;;;2.78;1.40;;;20.30;99.90;;;;;;5033771;28;20190;-81
2022/10/23 12:36:38;;;;;;;5.60;1.70;;;20.40;99.90;;;;;;5032925;28;20208;-78
2022/10/23 12:39:30;;;;;;;2.35;1.40;;;20.40;99.90;;;;;;5014449;28;20186;-79
2022/10/23 12:41:58;;;;;;;1.77;1.42;;;20.40;99.90;;;;;;5013544;28;20180;-77
2022/10/23 12:44:24;;;;;;;3.40;1.63;;;20.40;99.90;;;;;;5032639;28;20189;-78
2022/10/23 12:46:55;;;;;;;4.15;1.70;;;20.40;99.90;;;;;;5016429;28;20199;-78
2022/10/23 12:49:26;;;;;;;2.25;1.52;;;20.40;99.90;;;;;;5015906;28;20187;-77
2022/10/23 12:52:04;;;;;;;3.17;1.50;;;20.50;99.90;;;;;;5016412;28;20228;-79
2022/10/23 12:54:32;;;;;;;6.40;1.50;;;20.50;99.90;;;;;;5032185;28;20434;-78
2022/10/23 12:57:00;;;;;;;2.05;1.27;;;20.50;99.90;;;;;;5016510;28;20235;-79
2022/10/23 12:59:36;;;;;;;2.10;1.35;;;20.50;99.90;;;;;;5016289;28;20179;-78
2022/10/23 13:02:12;;;;;;;2.50;1.50;;;20.60;99.90;;;;;;5032926;28;20225;-80
2022/10/23 13:04:39;;;;;;;1.73;1.58;;;20.60;99.90;;;;;;5016075;28;20178;-79
2022/10/23 13:07:07;;;;;;;2.70;1.83;;;20.60;99.90;;;;;;5033187;28;20260;-80
2022/10/23 13:09:37;;;;;;;2.05;1.45;;;20.60;99.90;;;;;;5016068;28;20174;-79
2022/10/23 13:12:05;;;;;;;1.80;1.50;;;20.60;99.90;;;;;;5032363;28;20175;-78
2022/10/23 13:14:38;;;;;;;2.53;1.35;;;20.60;99.90;;;;;;5014738;28;20237;-80
2022/10/23 13:17:08;;;;;;;3.58;1.50;;;20.60;99.90;;;;;;5032492;28;20182;-80